This is the latest recevied weather packets stored in our database for station/object N5XL. If no packets are shown the sender has not sent any weather packets the latest 10 day(s).
| Time | Temp. | Humidity | Pressure | Rain* | Wind** | Luminosity | Snow |
|---|---|---|---|---|---|---|---|
| 1777711504 | 19.44° C | 26% | 1011.2 hPa | 0 mm | - | 0 W/m² | - |
| 1777707363 | 21.11° C | 23% | 1011.4 hPa | 0 mm | - | 0 W/m² | - |
| 1777705204 | 22.22° C | 20% | 1011.5 hPa | 0 mm | - | 0 W/m² | - |
| 1777703245 | 22.22° C | 21% | 1011.3 hPa | 0 mm | - | 0 W/m² | - |
| 1777698543 | 23.89° C | 22% | 1010.7 hPa | 0 mm | - | 0 W/m² | - |
| 1777691884 | 26.67° C | 20% | 1010 hPa | 0 mm | - | 0 W/m² | - |
| 1777688823 | 28.33° C | 18% | 1009.4 hPa | 0 mm | - | 0 W/m² | - |
| 1777688284 | 28.89° C | 18% | 1009.4 hPa | 0 mm | - | 0 W/m² | - |
| 1777685763 | 30° C | 18% | 1009 hPa | 0 mm | - | 26 W/m² | - |
| 1777685223 | 30° C | 18% | 1009.2 hPa | 0 mm | - | 33 W/m² | - |
| 1777684685 | 30.56° C | 17% | 1009.2 hPa | 0 mm | - | 45 W/m² | - |
| 1777679103 | 31.67° C | 17% | 1009 hPa | 0 mm | - | 334 W/m² | - |
| 1777676044 | 31.67° C | 17% | 1009.2 hPa | 0 mm | - | 509 W/m² | - |
| 1777675503 | 31.11° C | 18% | 1009.2 hPa | 0 mm | - | 540 W/m² | - |
| 1777667763 | 30° C | 21% | 1011 hPa | 0 mm | - | 825 W/m² | - |
| 1777666683 | 29.44° C | 22% | 1010.9 hPa | 0 mm | - | 840 W/m² | - |
| 1777658043 | 26.67° C | 27% | 1012.8 hPa | 0 mm | - | 778 W/m² | - |
| 1777652304 | 26.67° C | 30% | 1012.9 hPa | 0 mm | - | 549 W/m² | - |
| 1777651203 | 25.56° C | 32% | 1012.9 hPa | 0 mm | - | 493 W/m² | - |
| 1777646703 | 22.22° C | 39% | 1012.2 hPa | 0 mm | - | 227 W/m² | - |
| 1777643643 | 20° C | 46% | 1011.9 hPa | 0 mm | - | 74 W/m² | - |
| 1777640403 | 18.33° C | 46% | 1011.2 hPa | 0 mm | - | 15 W/m² | - |
| 1777637883 | 18.33° C | 47% | 1010.8 hPa | 0 mm | - | 0 W/m² | - |
| 1777629243 | 19.44° C | 46% | 1009.7 hPa | 0 mm | - | 0 W/m² | - |
| 1777624584 | 20.56° C | 39% | 1009.3 hPa | 0 mm | - | 0 W/m² | - |
* Rain latest hour (hover to see other rain measurements)
** Current wind speed in m/s (hover to see current wind gust speed)